createdAt,value
2023-02-23T00:03:18.497Z,80.23
2023-02-23T00:13:21.757Z,80.15
2023-02-23T00:23:27.496Z,80.47
2023-02-23T00:33:32.656Z,79.93
2023-02-23T00:43:37.677Z,79.97
2023-02-23T00:53:42.370Z,80.44
2023-02-23T01:03:46.103Z,80.46
2023-02-23T01:13:52.113Z,80.11
2023-02-23T01:23:56.255Z,80.22
2023-02-23T01:34:01.535Z,80.74
2023-02-23T01:44:28.240Z,80.36
2023-02-23T01:54:41.884Z,80.82
2023-02-23T02:04:45.362Z,80.28
2023-02-23T02:14:49.061Z,80.22
2023-02-23T02:25:23.336Z,80.52
2023-02-23T02:35:44.525Z,79.73
2023-02-23T02:46:14.029Z,79.93
2023-02-23T02:56:20.128Z,80.11
2023-02-23T03:06:56.378Z,79.93
2023-02-23T03:17:32.746Z,80.49
2023-02-23T03:28:00.653Z,80.69
2023-02-23T03:38:36.006Z,80.63
2023-02-23T03:48:59.563Z,80.61
2023-02-23T03:59:25.686Z,80.62
2023-02-23T04:09:48.783Z,80.51
2023-02-23T04:19:54.250Z,80.47
2023-02-23T04:29:57.497Z,80.06
2023-02-23T04:40:00.608Z,79.99
2023-02-23T04:50:04.352Z,79.88
2023-02-23T05:00:09.945Z,79.89
2023-02-23T05:10:13.813Z,80.39
2023-02-23T05:20:17.110Z,80.19
2023-02-23T05:30:20.616Z,80.64
2023-02-23T05:40:23.780Z,80.30
2023-02-23T05:50:27.098Z,80.15
2023-02-23T06:00:30.295Z,80.48
2023-02-23T06:10:33.389Z,81.04
2023-02-23T06:20:40.226Z,80.79
2023-02-23T06:30:44.431Z,81.16
2023-02-23T06:40:47.687Z,80.83
2023-02-23T06:50:51.882Z,80.69
2023-02-23T07:01:13.316Z,80.58
2023-02-23T07:11:19.892Z,81.12
2023-02-23T07:21:23.448Z,80.31
2023-02-23T07:31:26.854Z,80.48
2023-02-23T07:41:31.116Z,80.34
2023-02-23T07:51:34.338Z,80.32
2023-02-23T08:01:37.600Z,79.90
2023-02-23T08:11:40.834Z,79.25
2023-02-23T08:21:44.267Z,79.01
2023-02-23T08:31:47.803Z,78.43
2023-02-23T08:41:51.983Z,77.83
2023-02-23T08:51:55.284Z,77.59
2023-02-23T09:01:58.764Z,77.28
2023-02-23T09:12:02.351Z,77.25
2023-02-23T09:22:05.740Z,77.19
2023-02-23T09:32:11.359Z,76.19
2023-02-23T09:42:38.286Z,75.85
2023-02-23T09:52:47.741Z,75.63
2023-02-23T10:03:11.848Z,75.36
2023-02-23T10:13:55.844Z,74.23
2023-02-23T10:24:53.379Z,73.32
2023-02-23T10:34:57.057Z,72.55
2023-02-23T10:45:00.744Z,71.89
2023-02-23T10:55:08.510Z,71.81
2023-02-23T11:06:05.764Z,70.89
2023-02-23T11:16:15.136Z,70.88
2023-02-23T11:26:25.072Z,69.97
2023-02-23T11:36:31.295Z,68.01
2023-02-23T11:46:40.072Z,65.28
2023-02-23T11:56:53.205Z,64.22
2023-02-23T12:07:19.807Z,63.89
2023-02-23T12:17:33.240Z,65.61
2023-02-23T12:27:45.346Z,65.43
2023-02-23T12:38:00.673Z,65.70
2023-02-23T12:48:24.097Z,64.34
2023-02-23T12:59:06.937Z,64.60
2023-02-23T13:21:49.894Z,64.20
2023-02-23T13:31:54.334Z,63.40
2023-02-23T13:42:16.129Z,61.67
2023-02-23T13:52:43.308Z,61.14
2023-02-23T14:02:47.281Z,60.42
2023-02-23T14:13:14.153Z,60.37
2023-02-23T14:23:32.602Z,59.30
2023-02-23T14:33:45.571Z,59.69
2023-02-23T14:44:05.317Z,61.29
2023-02-23T14:54:15.851Z,61.78
2023-02-23T23:09:44.378Z,76.05
2023-02-23T23:19:49.397Z,76.39
2023-02-23T23:29:52.663Z,76.60
2023-02-23T23:40:05.627Z,77.02
2023-02-23T23:50:11.825Z,76.87
